createdAt,value
2018-11-11T00:01:03.465Z,46.10
2018-11-11T00:03:33.194Z,43.97
2018-11-11T00:06:02.908Z,46.33
2018-11-11T00:08:32.644Z,46.07
2018-11-11T00:11:02.480Z,40.13
2018-11-11T00:13:32.149Z,43.47
2018-11-11T00:16:01.912Z,43.60
2018-11-11T00:18:31.741Z,44.40
2018-11-11T00:21:01.445Z,40.93
2018-11-11T00:23:31.090Z,40.43
2018-11-11T00:26:00.675Z,45.73
2018-11-11T00:28:30.495Z,40.63
2018-11-11T00:31:00.226Z,46.73
2018-11-11T00:33:30.002Z,44.53
2018-11-11T00:35:59.632Z,41.37
2018-11-11T00:38:29.361Z,38.57
2018-11-11T00:40:59.112Z,39.50
2018-11-11T00:43:28.879Z,40.90
2018-11-11T00:45:58.654Z,44.37
2018-11-11T00:48:28.334Z,42.90
2018-11-11T00:53:36.969Z,40.03
2018-11-11T00:56:06.750Z,43.67
2018-11-11T00:58:36.413Z,43.60
2018-11-11T01:01:06.084Z,39.27
2018-11-11T01:03:35.878Z,40.27
2018-11-11T01:06:05.677Z,37.97
2018-11-11T01:08:35.401Z,45.23
2018-11-11T01:11:05.196Z,42.93
2018-11-11T01:13:34.870Z,45.97
2018-11-11T01:16:04.726Z,52.13
2018-11-11T01:18:40.152Z,35.53
2018-11-11T01:21:14.660Z,42.17
2018-11-11T01:23:48.465Z,47.93
2018-11-11T01:26:18.227Z,37.17
2018-11-11T01:28:47.912Z,41.87
2018-11-11T01:31:17.592Z,39.90
2018-11-11T01:33:47.275Z,40.77
2018-11-11T01:36:16.911Z,40.57
2018-11-11T01:38:46.646Z,38.97
2018-11-11T01:41:16.468Z,43.17
2018-11-11T01:43:46.148Z,41.23
2018-11-11T01:46:15.825Z,41.90
2018-11-11T01:48:45.668Z,43.50
2018-11-11T01:51:15.405Z,41.33
2018-11-11T01:53:45.221Z,43.60
2018-11-11T01:56:15.060Z,41.00
2018-11-11T01:58:44.903Z,40.27
2018-11-11T02:01:14.352Z,40.97
2018-11-11T02:03:44.134Z,39.50
2018-11-11T02:06:13.925Z,42.33
2018-11-11T02:08:43.764Z,45.63
2018-11-11T02:11:13.396Z,40.77
2018-11-11T02:13:43.308Z,38.87
2018-11-11T02:16:13.073Z,41.30
2018-11-11T02:18:42.809Z,46.37
2018-11-11T02:21:12.733Z,43.83
2018-11-11T02:23:42.654Z,44.27
2018-11-11T02:26:12.417Z,44.63
2018-11-11T02:28:42.100Z,38.03
2018-11-11T02:31:11.841Z,47.10
2018-11-11T02:33:41.367Z,39.77
2018-11-11T02:36:11.146Z,40.40
2018-11-11T02:38:40.869Z,35.37
2018-11-11T02:41:10.604Z,38.60
2018-11-11T02:43:40.285Z,39.90
2018-11-11T02:46:09.818Z,36.63
2018-11-11T02:48:39.559Z,42.00
2018-11-11T02:51:09.665Z,37.17
2018-11-11T02:53:39.740Z,36.30
2018-11-11T02:56:09.416Z,41.67
2018-11-11T02:58:39.145Z,44.33
2018-11-11T03:01:08.842Z,43.90
2018-11-11T03:03:38.728Z,41.73
2018-11-11T03:06:08.847Z,41.00
2018-11-11T03:08:38.578Z,45.97
2018-11-11T03:11:08.627Z,45.87
2018-11-11T03:13:38.394Z,44.03
2018-11-11T03:16:08.195Z,40.73
2018-11-11T03:18:37.944Z,43.90
2018-11-11T03:21:07.645Z,40.30
2018-11-11T03:23:37.446Z,45.73
2018-11-11T03:26:07.625Z,39.93
2018-11-11T03:28:37.162Z,45.47
2018-11-11T03:31:06.961Z,41.90
2018-11-11T03:33:36.859Z,53.40
2018-11-11T03:36:06.941Z,45.83
2018-11-11T03:38:36.560Z,46.17
2018-11-11T03:41:06.214Z,43.67
2018-11-11T03:43:36.000Z,45.27
2018-11-11T03:46:05.856Z,45.37
2018-11-11T03:48:35.628Z,41.83
2018-11-11T03:51:05.284Z,39.50
2018-11-11T03:53:35.073Z,42.93
2018-11-11T03:56:04.793Z,38.77
2018-11-11T03:58:34.576Z,39.90
2018-11-11T04:01:04.582Z,42.70
2018-11-11T04:03:34.243Z,36.47
2018-11-11T04:06:04.089Z,32.30
2018-11-11T04:08:33.680Z,37.57
2018-11-11T04:11:03.336Z,40.67
2018-11-11T04:13:33.033Z,45.50
2018-11-11T04:16:02.789Z,39.33
2018-11-11T04:18:32.567Z,43.07
2018-11-11T04:21:02.314Z,44.10
2018-11-11T04:23:31.996Z,40.93
2018-11-11T04:26:01.709Z,44.20
2018-11-11T04:28:31.476Z,45.27
2018-11-11T04:31:01.230Z,44.60
2018-11-11T04:33:30.924Z,45.30
2018-11-11T04:36:00.432Z,48.10
2018-11-11T04:38:30.064Z,45.67
2018-11-11T04:40:59.943Z,47.43
2018-11-11T04:43:29.589Z,43.97
2018-11-11T04:45:59.304Z,57.77
2018-11-11T04:48:28.887Z,42.43
2018-11-11T04:50:58.526Z,44.93
2018-11-11T04:53:28.300Z,42.30
2018-11-11T04:55:57.939Z,45.50
2018-11-11T04:58:27.711Z,46.63
2018-11-11T05:00:57.463Z,43.67
2018-11-11T05:03:27.073Z,42.57
2018-11-11T05:05:56.820Z,42.50
2018-11-11T05:08:26.595Z,42.53
2018-11-11T05:10:56.449Z,40.60
2018-11-11T05:13:26.080Z,37.73
2018-11-11T05:15:55.617Z,39.33
2018-11-11T05:18:25.264Z,41.10
2018-11-11T05:20:54.844Z,47.53
2018-11-11T05:23:24.509Z,43.27
2018-11-11T05:25:54.199Z,40.00
2018-11-11T05:28:23.751Z,46.33
2018-11-11T05:30:53.553Z,41.07
2018-11-11T05:33:23.221Z,38.10
2018-11-11T05:35:52.984Z,38.00
2018-11-11T05:38:22.573Z,41.87
2018-11-11T05:40:52.106Z,41.90
2018-11-11T05:43:21.922Z,42.83
2018-11-11T05:45:51.597Z,41.03
2018-11-11T05:48:21.384Z,39.27
2018-11-11T05:50:51.117Z,39.43
2018-11-11T05:53:21.100Z,34.40
2018-11-11T05:55:50.741Z,33.50
2018-11-11T05:58:20.434Z,29.50
2018-11-11T06:00:49.980Z,26.53
2018-11-11T06:03:19.781Z,25.77
2018-11-11T06:05:49.680Z,24.37
2018-11-11T06:08:19.300Z,20.23
2018-11-11T06:10:49.040Z,27.60
2018-11-11T06:13:18.681Z,23.93
2018-11-11T06:15:48.338Z,24.03
2018-11-11T06:18:18.306Z,24.10
2018-11-11T06:20:47.963Z,27.63
2018-11-11T06:23:17.636Z,23.77
2018-11-11T06:25:47.273Z,24.33
2018-11-11T06:28:16.942Z,20.10
2018-11-11T06:30:46.663Z,24.30
2018-11-11T06:33:16.312Z,25.10
2018-11-11T06:35:45.919Z,22.80
2018-11-11T06:38:15.825Z,21.73
2018-11-11T06:40:47.451Z,22.33
2018-11-11T06:43:20.290Z,24.13
2018-11-11T06:45:53.106Z,25.93
2018-11-11T06:48:22.841Z,20.37
2018-11-11T06:50:52.486Z,25.57
2018-11-11T06:53:22.252Z,24.03
2018-11-11T06:55:51.995Z,21.33
2018-11-11T06:58:21.739Z,24.20
2018-11-11T07:00:51.521Z,24.37
2018-11-11T07:04:02.082Z,23.33
2018-11-11T07:06:32.337Z,22.43
2018-11-11T07:09:02.124Z,24.70
2018-11-11T07:11:31.804Z,25.43
2018-11-11T07:14:08.301Z,25.57
2018-11-11T07:16:38.160Z,22.60
2018-11-11T07:19:08.033Z,21.30
2018-11-11T07:21:37.893Z,22.00
2018-11-11T07:24:07.672Z,21.10
2018-11-11T07:26:37.314Z,20.60
2018-11-11T07:29:07.688Z,26.57
2018-11-11T07:31:37.441Z,29.40
2018-11-11T07:34:07.210Z,24.23
2018-11-11T07:36:36.900Z,28.93
2018-11-11T07:39:10.315Z,25.10
2018-11-11T07:41:40.125Z,30.80
2018-11-11T07:44:10.041Z,24.63
2018-11-11T07:46:39.798Z,23.77
2018-11-11T07:49:09.557Z,22.93
2018-11-11T07:51:39.329Z,26.63
2018-11-11T07:54:09.085Z,22.93
2018-11-11T07:56:38.799Z,25.23
2018-11-11T07:59:08.704Z,27.20
2018-11-11T08:01:38.438Z,24.80
2018-11-11T08:04:08.384Z,25.93
2018-11-11T08:06:38.039Z,27.00
2018-11-11T08:09:08.571Z,27.07
2018-11-11T08:11:49.036Z,25.10
2018-11-11T08:14:18.801Z,25.47
2018-11-11T08:16:48.367Z,25.63
2018-11-11T08:19:18.034Z,29.30
2018-11-11T08:21:47.803Z,22.70
2018-11-11T08:24:18.024Z,24.23
2018-11-11T08:26:47.781Z,24.00
2018-11-11T08:29:17.501Z,25.13
2018-11-11T08:31:47.285Z,23.53
2018-11-11T08:34:17.096Z,25.40
2018-11-11T08:36:47.146Z,25.77
2018-11-11T08:39:17.437Z,22.83
2018-11-11T08:41:47.437Z,25.27
2018-11-11T08:44:17.078Z,23.00
2018-11-11T08:46:48.203Z,22.43
2018-11-11T08:49:17.936Z,30.37
2018-11-11T08:51:47.593Z,22.53
2018-11-11T08:54:17.363Z,25.50
2018-11-11T08:56:47.152Z,20.03
2018-11-11T08:59:16.898Z,18.43
2018-11-11T09:01:46.616Z,24.60
2018-11-11T09:04:17.955Z,20.33
2018-11-11T09:06:49.002Z,19.20
2018-11-11T09:09:18.797Z,21.97
2018-11-11T09:11:48.573Z,20.93
2018-11-11T09:14:18.139Z,20.57
2018-11-11T09:16:47.705Z,18.33
2018-11-11T09:19:17.408Z,18.40
2018-11-11T09:21:47.133Z,19.43
2018-11-11T09:24:16.726Z,20.93
2018-11-11T09:26:46.385Z,23.60
2018-11-11T09:29:16.219Z,19.73
2018-11-11T09:31:45.891Z,41.73
2018-11-11T09:34:15.653Z,99.90
2018-11-11T09:36:45.267Z,141.90
2018-11-11T09:39:15.276Z,47.70
2018-11-11T09:41:44.992Z,31.50
2018-11-11T09:44:14.668Z,30.70
2018-11-11T09:46:44.217Z,32.40
2018-11-11T09:49:14.173Z,63.37
2018-11-11T09:51:44.928Z,187.53
2018-11-11T09:54:14.897Z,38.97
2018-11-11T09:56:44.664Z,33.57
2018-11-11T09:59:14.353Z,35.13
2018-11-11T10:01:44.133Z,26.97
2018-11-11T10:04:18.580Z,25.57
2018-11-11T10:06:54.966Z,26.77
2018-11-11T10:09:36.872Z,28.53
2018-11-11T10:12:44.601Z,26.27
2018-11-11T10:15:49.785Z,27.27
2018-11-11T10:18:27.890Z,22.57
2018-11-11T10:21:07.573Z,25.53
2018-11-11T10:23:45.641Z,17.97
2018-11-11T10:26:36.810Z,25.63
2018-11-11T10:29:09.689Z,19.40
2018-11-11T10:32:15.733Z,20.63
2018-11-11T10:34:49.299Z,20.33
2018-11-11T10:37:24.098Z,19.97
2018-11-11T10:40:02.182Z,17.80
2018-11-11T10:42:36.948Z,24.77
2018-11-11T10:45:17.016Z,18.50
2018-11-11T10:47:51.635Z,22.33
2018-11-11T10:50:24.691Z,19.03
2018-11-11T10:52:54.380Z,19.70
2018-11-11T10:55:24.155Z,21.50
2018-11-11T10:57:54.212Z,21.13
2018-11-11T11:00:32.888Z,18.97
2018-11-11T11:03:02.735Z,16.70
2018-11-11T11:05:32.516Z,15.60
2018-11-11T11:08:02.309Z,22.67
2018-11-11T11:10:32.089Z,16.57
2018-11-11T11:13:01.747Z,17.43
2018-11-11T11:15:31.621Z,17.50
2018-11-11T11:18:01.367Z,16.37
2018-11-11T11:20:31.265Z,18.20
2018-11-11T11:23:00.947Z,20.73
2018-11-11T11:25:30.726Z,21.07
2018-11-11T11:28:00.470Z,18.93
2018-11-11T11:30:30.225Z,19.03
2018-11-11T11:32:59.989Z,21.67
2018-11-11T11:35:29.726Z,17.73
2018-11-11T11:37:59.467Z,19.03
2018-11-11T11:40:29.166Z,19.03
2018-11-11T11:42:58.884Z,16.50
2018-11-11T11:45:28.385Z,17.43
2018-11-11T11:47:58.081Z,17.97
2018-11-11T11:50:27.947Z,17.97
2018-11-11T11:52:57.855Z,22.13
2018-11-11T11:55:27.328Z,20.37
2018-11-11T11:58:12.673Z,21.10
2018-11-11T12:00:42.521Z,20.77
2018-11-11T12:03:12.116Z,18.00
2018-11-11T12:05:41.988Z,20.07
2018-11-11T12:08:12.232Z,22.17
2018-11-11T12:10:41.967Z,19.10
2018-11-11T12:13:12.445Z,18.40
2018-11-11T12:15:42.589Z,19.47
2018-11-11T12:18:12.856Z,20.97
2018-11-11T12:20:42.895Z,21.60
2018-11-11T12:23:12.961Z,19.67
2018-11-11T12:25:42.625Z,19.53
2018-11-11T12:28:12.306Z,21.00
2018-11-11T12:30:42.294Z,20.67
2018-11-11T12:33:12.015Z,25.63
2018-11-11T12:35:43.205Z,21.77
2018-11-11T12:38:13.272Z,22.23
2018-11-11T12:40:42.640Z,19.50
2018-11-11T12:43:12.473Z,23.97
2018-11-11T12:45:41.908Z,25.33
2018-11-11T12:48:11.325Z,25.20
2018-11-11T12:50:40.728Z,25.77
2018-11-11T12:53:10.123Z,24.33
2018-11-11T12:55:39.568Z,24.83
2018-11-11T12:58:09.158Z,25.70
2018-11-11T13:00:38.522Z,22.23
2018-11-11T13:03:08.272Z,23.40
2018-11-11T13:05:37.657Z,26.90
2018-11-11T13:08:07.207Z,23.43
2018-11-11T13:10:36.596Z,25.23
2018-11-11T13:13:06.372Z,21.60
2018-11-11T13:15:36.221Z,26.03
2018-11-11T13:18:05.863Z,25.30
2018-11-11T13:20:35.718Z,26.97
2018-11-11T13:23:05.611Z,21.53
2018-11-11T13:25:35.310Z,24.40
2018-11-11T13:28:05.185Z,25.80
2018-11-11T13:30:34.880Z,25.27
2018-11-11T13:33:04.820Z,23.07
2018-11-11T13:35:34.563Z,26.10
2018-11-11T13:38:04.341Z,23.40
2018-11-11T13:40:33.954Z,21.33
2018-11-11T13:43:03.799Z,25.30
2018-11-11T13:45:33.660Z,23.87
2018-11-11T13:48:03.301Z,21.87
2018-11-11T13:50:32.976Z,24.27
2018-11-11T13:53:02.517Z,25.97
2018-11-11T13:55:32.277Z,29.73
2018-11-11T13:58:02.109Z,29.80
2018-11-11T14:00:31.500Z,31.20
2018-11-11T14:03:00.901Z,27.17
2018-11-11T14:05:30.304Z,30.10
2018-11-11T14:07:59.795Z,32.63
2018-11-11T14:10:28.617Z,32.80
2018-11-11T14:12:57.999Z,32.67
2018-11-11T14:15:27.372Z,32.73
2018-11-11T14:17:57.245Z,30.27
2018-11-11T14:20:26.957Z,33.33
2018-11-11T14:22:56.905Z,32.00
2018-11-11T14:25:28.613Z,31.63
2018-11-11T14:27:57.981Z,31.20
2018-11-11T14:30:28.260Z,32.87
2018-11-11T14:32:58.619Z,30.53
2018-11-11T14:35:28.025Z,31.63
2018-11-11T14:37:57.458Z,29.93
2018-11-11T14:40:28.961Z,29.87
2018-11-11T14:42:58.495Z,32.87
2018-11-11T14:45:28.112Z,36.60
2018-11-11T14:47:58.252Z,34.60
2018-11-11T14:50:27.693Z,36.00
2018-11-11T14:52:57.127Z,37.50
2018-11-11T14:55:27.830Z,36.00
2018-11-11T14:57:57.738Z,33.67
2018-11-11T15:00:28.565Z,35.80
2018-11-11T15:03:04.505Z,35.07
2018-11-11T15:05:34.126Z,34.60
2018-11-11T15:08:03.762Z,36.53
2018-11-11T15:10:33.169Z,34.67
2018-11-11T15:13:03.039Z,39.53
2018-11-11T15:15:32.864Z,41.33
2018-11-11T15:18:02.669Z,48.10
2018-11-11T15:20:32.931Z,42.73
2018-11-11T15:23:02.316Z,48.67
2018-11-11T15:25:32.165Z,54.13
2018-11-11T15:28:01.482Z,50.80
2018-11-11T15:30:34.043Z,53.53
2018-11-11T15:33:03.984Z,50.20
2018-11-11T15:35:33.452Z,49.63
2018-11-11T15:38:02.916Z,54.63
2018-11-11T15:40:33.572Z,50.03
2018-11-11T15:43:03.141Z,48.73
2018-11-11T15:45:33.647Z,52.20
2018-11-11T15:48:03.409Z,48.10
2018-11-11T15:50:33.852Z,49.03
2018-11-11T15:53:04.443Z,54.77
2018-11-11T15:55:35.605Z,50.77
2018-11-11T15:58:05.017Z,54.20
2018-11-11T16:00:38.155Z,51.73
2018-11-11T16:03:07.885Z,50.80
2018-11-11T16:05:37.674Z,51.50
2018-11-11T16:08:07.417Z,51.83
2018-11-11T16:10:36.901Z,55.13
2018-11-11T16:13:06.778Z,47.30
2018-11-11T16:15:38.393Z,57.43
2018-11-11T16:18:09.525Z,56.57
2018-11-11T16:20:39.428Z,53.33
2018-11-11T16:23:09.630Z,49.60
2018-11-11T16:25:39.334Z,51.70
2018-11-11T16:28:09.232Z,55.03
2018-11-11T16:30:39.451Z,50.47
2018-11-11T16:33:09.981Z,46.80
2018-11-11T16:35:39.589Z,50.40
2018-11-11T16:38:09.400Z,45.63
2018-11-11T16:40:39.210Z,50.23
2018-11-11T16:43:08.715Z,46.30
2018-11-11T16:45:38.543Z,50.13
2018-11-11T16:48:08.173Z,53.00
2018-11-11T16:50:38.101Z,53.43
2018-11-11T16:53:09.001Z,57.17
2018-11-11T16:55:38.899Z,56.67
2018-11-11T16:58:08.292Z,47.00
2018-11-11T17:00:38.393Z,52.13
2018-11-11T17:03:08.829Z,55.73
2018-11-11T17:05:38.763Z,51.37
2018-11-11T17:08:08.194Z,51.13
2018-11-11T17:10:38.335Z,50.67
2018-11-11T17:13:11.961Z,56.33
2018-11-11T17:15:41.356Z,50.77
2018-11-11T17:18:11.185Z,47.07
2018-11-11T17:20:40.981Z,52.17
2018-11-11T17:23:10.706Z,53.43
2018-11-11T17:25:41.231Z,51.40
2018-11-11T17:28:14.133Z,48.90
2018-11-11T17:30:47.832Z,52.60
2018-11-11T17:33:22.431Z,54.73
2018-11-11T17:35:57.636Z,52.60
2018-11-11T17:38:31.220Z,55.50
2018-11-11T17:41:02.089Z,55.23
2018-11-11T17:43:34.841Z,50.30
2018-11-11T17:46:07.576Z,54.10
2018-11-11T17:48:39.578Z,52.53
2018-11-11T17:51:12.662Z,48.23
2018-11-11T17:53:45.793Z,51.73
2018-11-11T17:56:20.131Z,48.90
2018-11-11T17:58:53.849Z,58.53
2018-11-11T18:01:25.546Z,54.13
2018-11-11T18:03:59.335Z,51.00
2018-11-11T18:06:31.041Z,57.17
2018-11-11T18:09:03.712Z,50.80
2018-11-11T18:11:36.768Z,53.90
2018-11-11T18:14:07.101Z,50.03
2018-11-11T18:16:40.242Z,52.30
2018-11-11T18:19:11.914Z,53.93
2018-11-11T18:21:43.838Z,55.13
2018-11-11T18:24:16.700Z,54.50
2018-11-11T18:26:49.449Z,52.77
2018-11-11T18:29:20.372Z,56.40
2018-11-11T18:31:55.254Z,65.87
2018-11-11T18:34:28.454Z,67.10
2018-11-11T18:37:01.749Z,59.47
2018-11-11T18:39:36.564Z,56.47
2018-11-11T18:42:08.655Z,56.43
2018-11-11T18:44:43.099Z,55.33
2018-11-11T18:47:15.772Z,62.23
2018-11-11T18:49:48.601Z,61.47
2018-11-11T18:52:22.082Z,56.33
2018-11-11T18:54:53.219Z,52.70
2018-11-11T18:57:27.367Z,54.50
2018-11-11T18:59:59.970Z,56.73
2018-11-11T19:02:30.862Z,57.20
2018-11-11T19:05:02.998Z,56.97
2018-11-11T19:07:37.559Z,52.27
2018-11-11T19:13:01.084Z,53.00
2018-11-11T19:15:35.786Z,52.47
2018-11-11T19:18:06.895Z,49.90
2018-11-11T19:20:37.470Z,46.40
2018-11-11T19:23:08.939Z,50.20
2018-11-11T19:25:40.179Z,48.83
2018-11-11T19:28:12.244Z,46.80
2018-11-11T19:30:44.249Z,50.50
2018-11-11T19:33:17.322Z,50.67
2018-11-11T19:35:49.070Z,50.50
2018-11-11T19:38:20.525Z,48.10
2018-11-11T19:40:49.560Z,50.83
2018-11-11T19:43:21.565Z,49.40
2018-11-11T19:45:53.281Z,51.27
2018-11-11T19:48:32.826Z,52.57
2018-11-11T19:51:06.090Z,54.37
2018-11-11T19:53:39.453Z,48.60
2018-11-11T19:56:12.069Z,54.37
2018-11-11T19:58:44.000Z,57.03
2018-11-11T20:01:17.746Z,48.20
2018-11-11T20:03:56.745Z,58.80
2018-11-11T20:06:30.366Z,55.77
2018-11-11T20:09:04.323Z,52.93
2018-11-11T20:11:38.717Z,49.33
2018-11-11T20:14:11.597Z,48.77
2018-11-11T20:16:46.940Z,46.40
2018-11-11T20:19:17.228Z,48.30
2018-11-11T20:21:58.604Z,47.77
2018-11-11T20:24:28.600Z,52.07
2018-11-11T20:27:03.870Z,47.10
2018-11-11T20:29:36.749Z,52.67
2018-11-11T20:32:11.295Z,46.70
2018-11-11T20:34:45.810Z,46.30
2018-11-11T20:37:17.998Z,48.83
2018-11-11T20:39:55.189Z,51.73
2018-11-11T20:42:30.369Z,50.50
2018-11-11T20:45:04.269Z,51.87
2018-11-11T20:47:37.247Z,46.10
2018-11-11T20:50:12.179Z,52.90
2018-11-11T20:52:55.841Z,45.33
2018-11-11T20:55:31.914Z,50.30
2018-11-11T20:58:06.435Z,47.80
2018-11-11T21:00:41.124Z,55.87
2018-11-11T21:03:18.093Z,51.87
2018-11-11T21:05:51.997Z,48.97
2018-11-11T21:08:21.900Z,51.70
2018-11-11T21:10:51.645Z,50.60
2018-11-11T21:13:21.470Z,54.97
2018-11-11T21:15:51.102Z,49.80
2018-11-11T21:18:20.921Z,46.10
2018-11-11T21:20:50.562Z,51.23
2018-11-11T21:23:19.751Z,46.23
2018-11-11T21:25:48.907Z,51.50
2018-11-11T21:28:18.044Z,51.90
2018-11-11T21:30:47.183Z,50.30
2018-11-11T21:33:16.280Z,47.30
2018-11-11T21:35:45.376Z,50.47
2018-11-11T21:38:14.482Z,51.40
2018-11-11T21:40:43.542Z,47.13
2018-11-11T21:43:12.644Z,47.33
2018-11-11T21:45:41.753Z,48.47
2018-11-11T21:48:10.911Z,52.67
2018-11-11T21:50:39.923Z,51.17
2018-11-11T21:53:31.222Z,48.50
2018-11-11T21:56:00.767Z,55.37
2018-11-11T21:58:29.975Z,49.10
2018-11-11T22:00:59.066Z,49.90
2018-11-11T22:03:28.217Z,49.57
2018-11-11T22:05:57.519Z,49.27
2018-11-11T22:08:26.535Z,48.00
2018-11-11T22:10:55.673Z,45.33
2018-11-11T22:13:24.825Z,47.37
2018-11-11T22:15:53.947Z,50.87
2018-11-11T22:18:23.011Z,46.20
2018-11-11T22:20:52.123Z,53.03
2018-11-11T22:23:21.228Z,47.03
2018-11-11T22:25:50.307Z,42.70
2018-11-11T22:28:19.398Z,46.23
2018-11-11T22:30:48.431Z,48.37
2018-11-11T22:33:17.486Z,43.93
2018-11-11T22:35:46.623Z,41.50
2018-11-11T22:38:15.583Z,45.97
2018-11-11T22:40:44.757Z,46.47
2018-11-11T22:43:13.764Z,42.07
2018-11-11T22:45:42.862Z,47.33
2018-11-11T22:48:11.952Z,45.13
2018-11-11T22:50:41.685Z,45.00
2018-11-11T22:53:11.268Z,46.10
2018-11-11T22:55:41.015Z,42.93
2018-11-11T22:58:10.683Z,43.73
2018-11-11T23:00:44.786Z,40.03
2018-11-11T23:03:14.604Z,51.17
2018-11-11T23:05:44.389Z,54.97
2018-11-11T23:08:14.073Z,45.40
2018-11-11T23:10:43.730Z,47.97
2018-11-11T23:13:13.492Z,54.63
2018-11-11T23:15:43.351Z,49.07
2018-11-11T23:18:13.116Z,48.90
2018-11-11T23:20:42.775Z,46.27
2018-11-11T23:23:12.621Z,41.40
2018-11-11T23:25:42.302Z,52.10
2018-11-11T23:28:12.092Z,45.17
2018-11-11T23:30:41.705Z,50.70
2018-11-11T23:33:11.603Z,46.90
2018-11-11T23:35:41.389Z,43.00
2018-11-11T23:38:11.158Z,50.30
2018-11-11T23:40:40.913Z,49.97
2018-11-11T23:43:10.585Z,48.97
2018-11-11T23:45:40.329Z,52.47
2018-11-11T23:48:10.111Z,51.33
2018-11-11T23:50:39.772Z,54.97
2018-11-11T23:53:09.456Z,49.47
2018-11-11T23:55:39.093Z,52.03
2018-11-11T23:58:08.771Z,49.40
